createdAt,value
2024-01-10T00:02:21.922Z,32.30
2024-01-10T00:04:48.442Z,27.53
2024-01-10T00:07:16.173Z,33.57
2024-01-10T00:09:42.560Z,33.33
2024-01-10T00:12:09.005Z,32.77
2024-01-10T00:14:35.408Z,30.87
2024-01-10T00:17:01.814Z,37.63
2024-01-10T00:19:28.305Z,33.37
2024-01-10T00:21:54.791Z,34.70
2024-01-10T00:24:21.213Z,36.53
2024-01-10T00:26:47.686Z,30.80
2024-01-10T00:29:14.141Z,39.23
2024-01-10T00:31:41.029Z,39.83
2024-01-10T00:34:07.511Z,35.90
2024-01-10T00:36:34.003Z,39.33
2024-01-10T00:39:00.502Z,48.47
2024-01-10T00:41:26.939Z,51.17
2024-01-10T00:43:53.406Z,58.73
2024-01-10T00:46:19.774Z,66.87
2024-01-10T00:48:46.135Z,71.37
2024-01-10T00:51:12.613Z,109.80
2024-01-10T00:53:43.405Z,109.87
2024-01-10T00:56:10.446Z,93.27
2024-01-10T00:58:37.336Z,126.20
2024-01-10T01:01:04.339Z,156.77
2024-01-10T01:03:30.757Z,75.13
2024-01-10T01:05:57.313Z,76.37
2024-01-10T01:08:23.832Z,54.70
2024-01-10T01:10:50.315Z,31.13
2024-01-10T01:13:16.704Z,34.37
2024-01-10T01:15:43.100Z,45.63
2024-01-10T01:18:11.182Z,85.70
2024-01-10T01:20:37.669Z,56.37
2024-01-10T01:23:04.462Z,66.40
2024-01-10T01:25:30.844Z,37.10
2024-01-10T01:27:57.541Z,42.43
2024-01-10T01:30:24.003Z,38.33
2024-01-10T01:32:50.486Z,50.47
2024-01-10T01:35:22.721Z,54.70
2024-01-10T01:37:49.803Z,47.77
2024-01-10T01:40:16.263Z,36.23
2024-01-10T01:42:45.802Z,63.57
2024-01-10T01:45:13.413Z,46.00
2024-01-10T01:47:40.602Z,41.53
2024-01-10T01:50:11.439Z,65.30
2024-01-10T01:52:39.083Z,34.27
2024-01-10T01:55:07.523Z,76.10
2024-01-10T01:57:34.005Z,39.23
2024-01-10T02:00:00.464Z,29.53
2024-01-10T02:02:27.423Z,17.20
2024-01-10T02:04:54.664Z,53.17
2024-01-10T02:07:21.086Z,63.97
2024-01-10T02:09:47.470Z,21.73
2024-01-10T02:12:14.048Z,38.27
2024-01-10T02:14:40.517Z,63.37
2024-01-10T02:17:07.002Z,18.37
2024-01-10T02:19:35.782Z,38.17
2024-01-10T02:22:03.807Z,23.60
2024-01-10T02:24:30.147Z,22.17
2024-01-10T02:26:56.992Z,21.37
2024-01-10T02:29:25.086Z,42.17
2024-01-10T02:31:51.513Z,34.30
2024-01-10T02:34:18.012Z,44.13
2024-01-10T02:36:44.383Z,26.63
2024-01-10T02:39:10.717Z,19.13
2024-01-10T02:41:37.579Z,25.47
2024-01-10T02:44:04.509Z,29.43
2024-01-10T02:46:30.978Z,27.63
2024-01-10T02:48:57.569Z,17.87
2024-01-10T02:51:25.945Z,25.03
2024-01-10T02:53:52.274Z,19.30
2024-01-10T02:56:18.745Z,18.53
2024-01-10T02:58:45.254Z,25.03
2024-01-10T03:01:11.806Z,17.47
2024-01-10T03:03:38.355Z,20.93
2024-01-10T03:06:04.989Z,24.00
2024-01-10T03:08:31.380Z,17.53
2024-01-10T03:10:57.742Z,21.47
2024-01-10T03:13:24.116Z,14.77
2024-01-10T03:15:50.482Z,16.90
2024-01-10T03:18:16.995Z,22.37
2024-01-10T03:20:43.508Z,23.03
2024-01-10T03:23:09.897Z,19.47
2024-01-10T03:25:36.300Z,17.37
2024-01-10T03:28:02.713Z,17.13
2024-01-10T03:30:29.078Z,17.60
2024-01-10T03:32:55.538Z,20.90
2024-01-10T03:35:22.107Z,23.40
2024-01-10T03:37:48.542Z,34.33
2024-01-10T03:40:14.980Z,35.40
2024-01-10T03:42:41.336Z,44.17
2024-01-10T03:45:07.753Z,44.90
2024-01-10T03:47:34.184Z,50.80
2024-01-10T03:50:00.782Z,38.53
2024-01-10T03:52:27.282Z,39.80
2024-01-10T03:54:53.643Z,35.37
2024-01-10T03:57:20.030Z,41.30
2024-01-10T03:59:46.408Z,41.53
2024-01-10T04:02:12.814Z,62.93
2024-01-10T04:04:40.051Z,48.67
2024-01-10T04:07:07.255Z,37.20
2024-01-10T04:09:33.605Z,43.63
2024-01-10T04:11:59.947Z,36.10
2024-01-10T04:14:26.358Z,39.43
2024-01-10T04:16:54.678Z,44.87
2024-01-10T04:19:21.825Z,44.30
2024-01-10T04:21:48.263Z,37.03
2024-01-10T04:24:14.690Z,45.43
2024-01-10T04:26:41.128Z,36.23
2024-01-10T04:29:07.525Z,29.47
2024-01-10T04:31:34.042Z,42.67
2024-01-10T04:34:00.448Z,40.17
2024-01-10T04:36:26.830Z,32.73
2024-01-10T04:38:53.420Z,32.03
2024-01-10T04:41:20.250Z,26.50
2024-01-10T04:43:46.790Z,27.13
2024-01-10T04:46:13.157Z,21.67
2024-01-10T04:48:39.675Z,16.20
2024-01-10T04:51:06.140Z,20.93
2024-01-10T04:53:32.513Z,20.77
2024-01-10T04:55:59.040Z,17.00
2024-01-10T04:58:25.436Z,16.40
2024-01-10T05:00:51.894Z,17.83
2024-01-10T05:03:18.544Z,17.63
2024-01-10T05:05:45.127Z,17.97
2024-01-10T05:08:11.646Z,20.83
2024-01-10T05:10:38.082Z,21.03
2024-01-10T05:13:04.685Z,21.03
2024-01-10T05:15:31.004Z,18.60
2024-01-10T05:17:57.371Z,22.43
2024-01-10T05:20:23.841Z,19.17
2024-01-10T05:22:50.239Z,24.33
2024-01-10T05:25:19.374Z,24.10
2024-01-10T05:27:45.749Z,22.10
2024-01-10T05:30:13.839Z,26.93
2024-01-10T05:32:40.251Z,25.83
2024-01-10T05:35:07.230Z,32.00
2024-01-10T05:37:34.057Z,21.20
2024-01-10T05:40:00.470Z,33.87
2024-01-10T05:42:27.652Z,29.50
2024-01-10T05:44:54.168Z,26.23
2024-01-10T05:47:20.616Z,27.93
2024-01-10T05:49:47.057Z,26.70
2024-01-10T05:52:13.500Z,35.23
2024-01-10T05:54:40.210Z,34.17
2024-01-10T05:57:06.858Z,82.47
2024-01-10T05:59:33.293Z,29.57
2024-01-10T06:02:00.016Z,28.70
2024-01-10T06:04:26.646Z,32.13
2024-01-10T06:06:53.003Z,26.00
2024-01-10T06:09:22.978Z,22.83
2024-01-10T06:11:49.688Z,25.60
2024-01-10T06:14:16.420Z,37.97
2024-01-10T06:16:42.849Z,28.47
2024-01-10T06:19:09.334Z,27.60
2024-01-10T06:21:35.684Z,55.73
2024-01-10T06:24:02.060Z,25.87
2024-01-10T06:26:28.972Z,29.63
2024-01-10T06:28:55.529Z,36.23
2024-01-10T06:31:21.967Z,37.43
2024-01-10T06:33:48.424Z,28.87
2024-01-10T06:36:14.814Z,25.67
2024-01-10T06:38:41.431Z,26.03
2024-01-10T06:41:11.729Z,23.27
2024-01-10T06:43:38.289Z,23.53
2024-01-10T06:46:04.858Z,25.47
2024-01-10T06:48:32.735Z,30.90
2024-01-10T06:50:59.865Z,31.83
2024-01-10T06:53:26.364Z,29.37
2024-01-10T06:55:53.106Z,29.23
2024-01-10T06:58:19.538Z,31.40
2024-01-10T07:00:45.947Z,32.10
2024-01-10T07:03:12.373Z,30.57
2024-01-10T07:05:38.797Z,32.07
2024-01-10T07:08:05.379Z,32.30
2024-01-10T07:10:31.762Z,29.80
2024-01-10T07:12:58.432Z,25.33
2024-01-10T07:15:24.933Z,28.47
2024-01-10T07:17:51.564Z,26.90
2024-01-10T07:20:18.024Z,32.53
2024-01-10T07:22:45.284Z,28.67
2024-01-10T07:25:15.170Z,25.37
2024-01-10T07:27:42.205Z,31.80
2024-01-10T07:30:14.492Z,30.33
2024-01-10T07:32:45.015Z,25.27
2024-01-10T07:35:12.063Z,27.00
2024-01-10T07:37:39.075Z,32.47
2024-01-10T07:40:07.365Z,35.77
2024-01-10T07:42:34.535Z,44.23
2024-01-10T07:45:01.430Z,34.17
2024-01-10T07:47:28.036Z,33.80
2024-01-10T07:49:54.542Z,34.17
2024-01-10T07:52:23.802Z,36.40
2024-01-10T07:54:51.532Z,38.33
2024-01-10T07:57:19.297Z,37.57
2024-01-10T07:59:46.345Z,37.33
2024-01-10T08:02:12.972Z,29.87
2024-01-10T08:04:39.421Z,47.50
2024-01-10T08:07:05.816Z,41.53
2024-01-10T08:09:32.253Z,45.43
2024-01-10T08:11:58.816Z,32.90
2024-01-10T08:14:25.482Z,32.70
2024-01-10T08:19:20.663Z,35.70
2024-01-10T08:21:47.137Z,33.00
2024-01-10T08:24:13.824Z,34.60
2024-01-10T08:26:40.454Z,30.87
2024-01-10T08:29:06.848Z,40.43
2024-01-10T08:31:33.292Z,36.03
2024-01-10T08:33:59.677Z,27.47
2024-01-10T08:36:26.133Z,34.27
2024-01-10T08:38:53.146Z,38.00
2024-01-10T08:41:20.623Z,40.77
2024-01-10T08:43:50.166Z,33.10
2024-01-10T08:46:16.631Z,34.73
2024-01-10T08:48:43.640Z,35.23
2024-01-10T08:51:11.239Z,35.33
2024-01-10T08:53:37.632Z,36.00
2024-01-10T08:56:04.200Z,32.10
2024-01-10T08:58:30.550Z,38.93
2024-01-10T09:00:56.992Z,37.73
2024-01-10T09:03:23.394Z,36.17
2024-01-10T09:05:57.318Z,38.50
2024-01-10T09:08:31.831Z,37.50
2024-01-10T09:10:58.310Z,39.20
2024-01-10T09:13:24.754Z,37.37
2024-01-10T09:15:51.122Z,41.10
2024-01-10T09:18:17.769Z,36.43
2024-01-10T09:20:44.211Z,34.47
2024-01-10T09:23:11.771Z,32.93
2024-01-10T09:25:38.189Z,34.23
2024-01-10T09:28:07.670Z,35.23
2024-01-10T09:30:34.242Z,33.07
2024-01-10T09:33:01.458Z,27.47
2024-01-10T09:35:28.034Z,28.03
2024-01-10T09:37:54.917Z,31.90
2024-01-10T09:40:28.589Z,31.17
2024-01-10T09:42:58.182Z,30.47
2024-01-10T09:45:25.341Z,36.13
2024-01-10T09:47:57.157Z,40.97
2024-01-10T09:50:24.706Z,35.47
2024-01-10T09:52:53.526Z,29.63
2024-01-10T09:55:25.715Z,30.47
2024-01-10T09:57:53.285Z,32.03
2024-01-10T10:00:19.790Z,32.07
2024-01-10T10:02:48.812Z,29.47
2024-01-10T10:05:17.162Z,32.50
2024-01-10T10:07:54.386Z,47.73
2024-01-10T10:10:21.001Z,36.63
2024-01-10T10:12:49.168Z,25.67
2024-01-10T10:15:17.561Z,20.73
2024-01-10T10:17:49.264Z,23.57
2024-01-10T10:20:22.729Z,26.37
2024-01-10T10:23:03.117Z,25.67
2024-01-10T10:25:35.001Z,22.93
2024-01-10T10:28:03.582Z,21.60
2024-01-10T10:30:31.692Z,22.73
2024-01-10T10:32:58.352Z,21.53
2024-01-10T10:35:33.645Z,22.40
2024-01-10T10:38:04.803Z,19.93
2024-01-10T10:40:31.174Z,21.13
2024-01-10T10:42:58.146Z,23.00
2024-01-10T10:45:27.532Z,23.67
2024-01-10T10:47:59.169Z,22.43
2024-01-10T10:50:29.480Z,22.93
2024-01-10T10:52:57.059Z,22.73
2024-01-10T10:55:24.735Z,23.10
2024-01-10T10:58:00.976Z,21.27
2024-01-10T11:00:32.035Z,23.57
2024-01-10T11:02:58.726Z,23.73
2024-01-10T11:05:26.332Z,22.33
2024-01-10T11:07:57.910Z,22.53
2024-01-10T11:10:31.194Z,22.67
2024-01-10T11:13:27.842Z,20.50
2024-01-10T11:16:08.474Z,21.20
2024-01-10T11:19:07.134Z,21.83
2024-01-10T11:21:52.148Z,23.13
2024-01-10T11:24:19.433Z,19.77
2024-01-10T11:26:46.912Z,19.73
2024-01-10T11:29:14.005Z,20.87
2024-01-10T11:31:40.619Z,19.67
2024-01-10T11:34:07.280Z,21.57
2024-01-10T11:36:33.791Z,20.07
2024-01-10T11:39:03.381Z,19.77
2024-01-10T11:41:36.420Z,21.47
2024-01-10T11:44:12.582Z,21.47
2024-01-10T11:46:39.864Z,20.23
2024-01-10T11:49:13.335Z,20.73
2024-01-10T11:51:39.860Z,18.57
2024-01-10T11:54:06.727Z,19.77
2024-01-10T11:56:43.451Z,19.40
2024-01-10T11:59:17.088Z,20.63
2024-01-10T12:01:43.680Z,15.60
2024-01-10T12:04:15.045Z,16.23
2024-01-10T12:06:48.270Z,17.00
2024-01-10T12:09:15.250Z,15.50
2024-01-10T12:11:44.988Z,15.20
2024-01-10T12:14:11.617Z,17.50
2024-01-10T12:16:38.144Z,20.10
2024-01-10T12:19:04.638Z,17.37
2024-01-10T12:21:31.515Z,16.17
2024-01-10T12:23:57.948Z,16.17
2024-01-10T12:26:24.340Z,19.30
2024-01-10T12:28:57.994Z,16.73
2024-01-10T12:31:26.613Z,19.60
2024-01-10T12:33:53.103Z,19.23
2024-01-10T12:36:20.879Z,16.53
2024-01-10T12:38:47.316Z,18.90
2024-01-10T12:41:16.537Z,18.27
2024-01-10T12:43:43.492Z,17.03
2024-01-10T12:46:13.171Z,17.30
2024-01-10T12:48:42.522Z,17.80
2024-01-10T12:51:12.800Z,16.13
2024-01-10T12:53:42.142Z,16.30
2024-01-10T12:56:09.919Z,14.13
2024-01-10T12:58:37.704Z,17.23
2024-01-10T13:01:07.003Z,21.77
2024-01-10T13:03:33.605Z,18.23
2024-01-10T13:06:00.027Z,13.00
2024-01-10T13:08:26.629Z,14.97
2024-01-10T13:10:53.135Z,19.03
2024-01-10T13:13:22.520Z,27.20
2024-01-10T13:15:49.930Z,13.20
2024-01-10T13:18:16.853Z,12.27
2024-01-10T13:20:44.245Z,24.23
2024-01-10T13:23:10.862Z,32.90
2024-01-10T13:25:38.345Z,27.77
2024-01-10T13:28:07.913Z,79.43
2024-01-10T13:30:34.350Z,78.43
2024-01-10T13:33:00.957Z,26.33
2024-01-10T13:35:28.071Z,15.23
2024-01-10T13:37:54.456Z,12.63
2024-01-10T13:40:25.236Z,13.40
2024-01-10T13:42:52.005Z,18.93
2024-01-10T13:45:18.403Z,14.80
2024-01-10T13:47:44.867Z,12.17
2024-01-10T13:50:11.587Z,15.63
2024-01-10T13:52:38.095Z,13.57
2024-01-10T13:55:05.840Z,14.17
2024-01-10T13:57:35.665Z,30.70
2024-01-10T14:00:03.057Z,17.53
2024-01-10T14:02:29.511Z,14.03
2024-01-10T14:04:58.678Z,14.47
2024-01-10T14:07:25.676Z,17.53
2024-01-10T14:09:55.559Z,13.83
2024-01-10T14:12:21.930Z,20.10
2024-01-10T14:14:48.269Z,11.37
2024-01-10T14:17:14.976Z,11.77
2024-01-10T14:19:41.389Z,11.30
2024-01-10T14:22:16.914Z,10.83
2024-01-10T14:24:48.696Z,10.47
2024-01-10T14:27:15.096Z,10.33
2024-01-10T14:29:41.460Z,10.80
2024-01-10T14:32:17.069Z,14.10
2024-01-10T14:34:45.976Z,12.33
2024-01-10T14:37:12.751Z,13.60
2024-01-10T14:39:39.922Z,13.13
2024-01-10T14:42:08.217Z,15.90
2024-01-10T14:44:35.270Z,10.10
2024-01-10T14:47:07.269Z,10.33
2024-01-10T14:49:37.674Z,10.10
2024-01-10T14:52:04.550Z,12.10
2024-01-10T14:54:31.554Z,9.87
2024-01-10T14:56:57.953Z,10.27
2024-01-10T14:59:32.361Z,11.00
2024-01-10T15:02:08.094Z,9.70
2024-01-10T15:04:41.371Z,9.87
2024-01-10T15:07:08.265Z,11.87
2024-01-10T15:09:37.623Z,11.13
2024-01-10T15:12:09.416Z,10.83
2024-01-10T15:14:37.111Z,9.23
2024-01-10T15:17:06.977Z,12.20
2024-01-10T15:19:33.721Z,14.07
2024-01-10T15:22:00.530Z,36.77
2024-01-10T15:24:28.171Z,13.77
2024-01-10T15:26:54.834Z,9.77
2024-01-10T15:29:21.240Z,12.07
2024-01-10T15:31:47.745Z,10.97
2024-01-10T15:34:14.203Z,10.60
2024-01-10T15:36:43.131Z,10.90
2024-01-10T15:39:09.537Z,10.90
2024-01-10T15:41:36.024Z,11.60
2024-01-10T15:44:02.415Z,19.40
2024-01-10T15:46:29.039Z,12.43
2024-01-10T15:48:55.690Z,12.90
2024-01-10T15:51:22.217Z,12.43
2024-01-10T15:53:51.256Z,12.70
2024-01-10T15:56:18.955Z,12.33
2024-01-10T15:58:45.394Z,14.13
2024-01-10T16:01:11.837Z,13.63
2024-01-10T16:03:38.262Z,14.53
2024-01-10T16:06:05.290Z,16.37
2024-01-10T16:08:31.846Z,19.00
2024-01-10T16:10:58.278Z,16.97
2024-01-10T16:13:24.812Z,13.67
2024-01-10T16:15:58.287Z,14.33
2024-01-10T16:18:24.814Z,14.47
2024-01-10T16:20:52.908Z,21.20
2024-01-10T16:23:19.345Z,15.17
2024-01-10T16:25:45.786Z,10.53
2024-01-10T16:28:12.234Z,11.43
2024-01-10T16:30:38.620Z,13.90
2024-01-10T16:33:05.107Z,15.87
2024-01-10T16:35:31.760Z,12.90
2024-01-10T16:37:58.226Z,12.43
2024-01-10T16:40:24.635Z,17.17
2024-01-10T16:42:51.062Z,11.60
2024-01-10T16:45:17.824Z,11.57
2024-01-10T16:47:44.401Z,10.07
2024-01-10T16:50:10.960Z,11.97
2024-01-10T16:52:39.530Z,10.67
2024-01-10T16:55:06.420Z,10.97
2024-01-10T16:57:32.848Z,12.67
2024-01-10T16:59:59.258Z,11.67
2024-01-10T17:02:25.719Z,40.03
2024-01-10T17:04:52.277Z,17.33
2024-01-10T17:07:18.698Z,26.93
2024-01-10T17:09:45.740Z,13.70
2024-01-10T17:12:12.130Z,61.60
2024-01-10T17:14:38.504Z,44.07
2024-01-10T17:17:07.819Z,31.43
2024-01-10T17:19:34.202Z,13.13
2024-01-10T17:22:00.534Z,16.20
2024-01-10T17:24:26.890Z,13.10
2024-01-10T17:26:53.417Z,15.47
2024-01-10T17:29:19.893Z,14.83
2024-01-10T17:31:46.398Z,15.87
2024-01-10T17:34:12.843Z,13.97
2024-01-10T17:36:39.279Z,18.43
2024-01-10T17:39:05.952Z,16.23
2024-01-10T17:41:32.587Z,14.33
2024-01-10T17:44:00.029Z,14.73
2024-01-10T17:46:26.552Z,15.13
2024-01-10T17:48:53.440Z,13.73
2024-01-10T17:51:22.675Z,11.37
2024-01-10T17:53:50.057Z,14.20
2024-01-10T17:56:16.763Z,13.80
2024-01-10T17:58:43.525Z,14.10
2024-01-10T18:01:09.905Z,14.03
2024-01-10T18:03:36.609Z,14.80
2024-01-10T18:06:03.103Z,16.07
2024-01-10T18:08:29.667Z,15.27
2024-01-10T18:10:56.799Z,14.57
2024-01-10T18:13:24.001Z,15.23
2024-01-10T18:15:50.482Z,15.77
2024-01-10T18:18:17.243Z,17.47
2024-01-10T18:20:43.791Z,16.80
2024-01-10T18:23:10.275Z,14.90
2024-01-10T18:25:38.410Z,14.23
2024-01-10T18:28:06.686Z,15.50
2024-01-10T18:30:33.094Z,15.20
2024-01-10T18:33:02.308Z,15.27
2024-01-10T18:35:28.929Z,15.63
2024-01-10T18:37:55.462Z,16.67
2024-01-10T18:40:21.878Z,14.40
2024-01-10T18:42:48.298Z,13.70
2024-01-10T18:45:14.706Z,15.17
2024-01-10T18:47:41.242Z,14.20
2024-01-10T18:50:08.746Z,15.43
2024-01-10T18:52:35.344Z,15.67
2024-01-10T18:55:01.818Z,16.23
2024-01-10T18:57:28.665Z,17.23
2024-01-10T18:59:55.291Z,18.53
2024-01-10T19:02:22.804Z,19.00
2024-01-10T19:04:49.347Z,18.17
2024-01-10T19:07:16.121Z,16.00
2024-01-10T19:09:43.766Z,11.10
2024-01-10T19:12:10.307Z,11.13
2024-01-10T19:14:37.116Z,11.90
2024-01-10T19:17:04.401Z,14.60
2024-01-10T19:19:31.877Z,13.70
2024-01-10T19:22:03.379Z,13.30
2024-01-10T19:24:29.818Z,14.03
2024-01-10T19:26:56.264Z,13.60
2024-01-10T19:29:22.610Z,14.47
2024-01-10T19:31:49.145Z,12.80
2024-01-10T19:34:15.592Z,13.00
2024-01-10T19:36:42.128Z,14.90
2024-01-10T19:39:08.644Z,16.63
2024-01-10T19:41:35.204Z,19.67
2024-01-10T19:44:01.612Z,20.33
2024-01-10T19:46:28.225Z,19.73
2024-01-10T19:48:54.694Z,20.33
2024-01-10T19:51:21.432Z,19.67
2024-01-10T19:53:50.829Z,19.93
2024-01-10T19:56:17.992Z,20.07
2024-01-10T19:58:45.197Z,20.53
2024-01-10T20:01:11.962Z,21.20
2024-01-10T20:03:38.417Z,20.23
2024-01-10T20:06:05.305Z,20.90
2024-01-10T20:08:31.935Z,20.37
2024-01-10T20:10:58.616Z,23.07
2024-01-10T20:13:25.660Z,23.93
2024-01-10T20:15:52.311Z,23.73
2024-01-10T20:18:19.004Z,24.73
2024-01-10T20:20:47.304Z,22.60
2024-01-10T20:23:13.948Z,23.37
2024-01-10T20:25:40.750Z,23.27
2024-01-10T20:28:09.417Z,25.93
2024-01-10T20:30:35.829Z,35.10
2024-01-10T20:33:05.746Z,46.73
2024-01-10T20:35:32.259Z,44.53
2024-01-10T20:37:58.669Z,45.17
2024-01-10T20:40:25.176Z,25.30
2024-01-10T20:42:53.178Z,24.97
2024-01-10T20:45:20.368Z,16.03
2024-01-10T20:47:47.297Z,16.40
2024-01-10T20:50:13.956Z,12.77
2024-01-10T20:52:40.552Z,12.57
2024-01-10T20:55:07.149Z,13.00
2024-01-10T20:57:33.805Z,15.40
2024-01-10T21:00:04.493Z,16.50
2024-01-10T21:02:31.694Z,18.80
2024-01-10T21:04:58.356Z,16.50
2024-01-10T21:07:24.962Z,14.80
2024-01-10T21:09:51.395Z,17.17
2024-01-10T21:12:17.865Z,17.63
2024-01-10T21:14:46.098Z,15.87
2024-01-10T21:17:13.631Z,15.43
2024-01-10T21:19:40.454Z,13.90
2024-01-10T21:22:06.910Z,13.10
2024-01-10T21:24:37.802Z,12.07
2024-01-10T21:27:05.214Z,12.77
2024-01-10T21:29:31.753Z,11.57
2024-01-10T21:31:58.348Z,11.83
2024-01-10T21:34:24.852Z,10.63
2024-01-10T21:36:51.294Z,10.47
2024-01-10T21:39:17.699Z,11.17
2024-01-10T21:41:44.346Z,10.67
2024-01-10T21:44:10.945Z,10.83
2024-01-10T21:46:37.332Z,10.73
2024-01-10T21:49:03.792Z,11.43
2024-01-10T21:51:30.478Z,11.60
2024-01-10T21:53:56.901Z,11.77
2024-01-10T21:56:23.311Z,11.77
2024-01-10T21:58:50.000Z,11.80
2024-01-10T22:01:16.512Z,12.93
2024-01-10T22:03:43.741Z,12.83
2024-01-10T22:06:10.400Z,12.93
2024-01-10T22:08:38.770Z,12.73
2024-01-10T22:11:05.373Z,13.60
2024-01-10T22:13:31.822Z,13.60
2024-01-10T22:15:58.157Z,13.23
2024-01-10T22:18:24.965Z,15.60
2024-01-10T22:20:51.422Z,16.10
2024-01-10T22:23:17.831Z,16.43
2024-01-10T22:25:45.368Z,15.73
2024-01-10T22:28:13.246Z,14.73
2024-01-10T22:30:43.991Z,15.20
2024-01-10T22:33:10.757Z,13.17
2024-01-10T22:35:38.388Z,13.60
2024-01-10T22:38:05.570Z,14.20
2024-01-10T22:40:32.451Z,12.17
2024-01-10T22:43:00.173Z,12.33
2024-01-10T22:45:27.354Z,12.20
2024-01-10T22:47:54.515Z,12.03
2024-01-10T22:50:22.123Z,11.67
2024-01-10T22:52:48.828Z,11.60
2024-01-10T22:55:22.106Z,10.97
2024-01-10T22:57:54.459Z,11.83
2024-01-10T23:00:30.648Z,12.50
2024-01-10T23:02:59.206Z,11.97
2024-01-10T23:05:31.019Z,12.97
2024-01-10T23:08:04.402Z,12.93
2024-01-10T23:10:32.361Z,14.17
2024-01-10T23:13:00.768Z,12.90
2024-01-10T23:15:28.195Z,13.03
2024-01-10T23:17:54.759Z,13.23
2024-01-10T23:20:21.236Z,14.70
2024-01-10T23:22:48.220Z,14.70
2024-01-10T23:25:14.671Z,14.60
2024-01-10T23:27:44.348Z,15.57
2024-01-10T23:30:15.109Z,14.97
2024-01-10T23:32:43.565Z,14.90
2024-01-10T23:35:10.527Z,15.00
2024-01-10T23:37:37.053Z,16.50
2024-01-10T23:40:03.973Z,15.20
2024-01-10T23:42:30.385Z,15.63
2024-01-10T23:44:56.724Z,15.67
2024-01-10T23:47:23.378Z,16.73
2024-01-10T23:49:50.965Z,16.87
2024-01-10T23:52:17.440Z,16.13
2024-01-10T23:54:43.797Z,15.63
2024-01-10T23:57:10.163Z,15.97
2024-01-10T23:59:36.762Z,16.90
